Terminal Aerodrome Forecast
Issued by NWS Sioux Falls, SD

Home | Current Version | Previous Version | Text Only | Print | Product List | Glossary On
Versions: 1 2 3 4 5 6 7 8 9 10 11 12 13 14
148
FTUS43 KFSD 202321
TAFHON
TAF
KHON 202321Z 2100/2124 17016G23KT P6SM SCT250
     FM210900 19012KT P6SM BKN150
     FM211100 26012KT P6SM BKN120
     FM211500 31016G24KT P6SM BKN090
     FM212200 29013KT P6SM SCT200=

USA.gov is the U.S. government's official web portal to all federal, state and local government web resources and services.